createdAt,value
2019-01-11T00:00:51.835Z,0.38
2019-01-11T00:03:21.981Z,0.48
2019-01-11T00:05:53.774Z,0.52
2019-01-11T00:08:22.901Z,0.32
2019-01-11T00:10:51.511Z,0.44
2019-01-11T00:13:20.122Z,0.46
2019-01-11T00:15:49.975Z,0.54
2019-01-11T00:18:20.847Z,0.44
2019-01-11T00:20:49.555Z,0.44
2019-01-11T00:23:18.265Z,0.48
2019-01-11T00:25:46.872Z,0.47
2019-01-11T00:28:15.486Z,0.50
2019-01-11T00:30:44.211Z,0.51
2019-01-11T00:33:12.813Z,0.53
2019-01-11T00:35:41.440Z,0.42
2019-01-11T00:38:10.044Z,0.40
2019-01-11T00:40:38.679Z,0.43
2019-01-11T00:43:07.625Z,0.28
2019-01-11T00:45:36.335Z,0.37
2019-01-11T00:48:05.051Z,0.44
2019-01-11T00:50:33.668Z,0.44
2019-01-11T00:53:02.291Z,0.35
2019-01-11T00:55:30.889Z,0.46
2019-01-11T00:57:59.519Z,0.25
2019-01-11T01:00:28.240Z,0.16
2019-01-11T01:02:56.874Z,0.19
2019-01-11T01:05:26.007Z,0.38
2019-01-11T01:07:54.729Z,0.37
2019-01-11T01:10:24.070Z,0.44
2019-01-11T01:12:52.783Z,0.38
2019-01-11T01:15:24.874Z,0.47
2019-01-11T01:17:53.491Z,0.32
2019-01-11T01:20:22.114Z,0.21
2019-01-11T01:22:54.216Z,0.22
2019-01-11T01:25:22.834Z,0.24
2019-01-11T01:27:51.459Z,0.31
2019-01-11T01:30:21.919Z,0.40
2019-01-11T01:32:50.844Z,0.43
2019-01-11T01:35:21.198Z,0.22
2019-01-11T01:37:52.788Z,0.20
2019-01-11T01:40:24.472Z,0.23
2019-01-11T01:42:53.438Z,0.23
2019-01-11T01:45:22.108Z,0.27
2019-01-11T01:47:53.588Z,0.32
2019-01-11T01:50:22.231Z,0.19
2019-01-11T01:52:50.863Z,0.15
2019-01-11T01:55:19.698Z,0.27
2019-01-11T01:57:48.300Z,0.33
2019-01-11T02:00:21.030Z,0.25
2019-01-11T02:02:49.622Z,0.35
2019-01-11T02:05:20.943Z,0.22
2019-01-11T02:07:49.512Z,0.29
2019-01-11T02:10:20.003Z,0.35
2019-01-11T02:12:50.767Z,0.25
2019-01-11T02:15:21.024Z,0.24
2019-01-11T02:17:49.738Z,0.32
2019-01-11T02:20:18.860Z,0.30
2019-01-11T02:22:47.464Z,0.22
2019-01-11T02:25:16.277Z,0.27
2019-01-11T02:27:45.601Z,0.25
2019-01-11T02:30:17.310Z,0.19
2019-01-11T02:32:52.479Z,0.11
2019-01-11T02:35:16.476Z,0.22
2019-01-11T02:37:45.293Z,0.19
2019-01-11T02:40:14.516Z,0.13
2019-01-11T02:42:43.229Z,0.09
2019-01-11T02:45:15.217Z,0.09
2019-01-11T02:47:43.940Z,0.19
2019-01-11T02:50:13.122Z,0.25
2019-01-11T02:52:43.011Z,0.25
2019-01-11T02:55:11.822Z,0.26
2019-01-11T02:57:40.526Z,0.42
2019-01-11T03:00:33.232Z,0.42
2019-01-11T03:03:01.962Z,0.43
2019-01-11T03:05:30.601Z,0.46
2019-01-11T03:07:59.190Z,0.48
2019-01-11T03:10:27.816Z,0.57
2019-01-11T03:12:56.442Z,0.55
2019-01-11T03:15:25.343Z,0.62
2019-01-11T03:17:53.900Z,0.56
2019-01-11T03:20:22.582Z,0.53
2019-01-11T03:22:54.269Z,0.48
2019-01-11T03:25:22.989Z,0.48
2019-01-11T03:27:51.595Z,0.46
2019-01-11T03:30:21.251Z,0.43
2019-01-11T03:32:52.814Z,0.44
2019-01-11T03:35:21.435Z,0.29
2019-01-11T03:37:51.905Z,0.24
2019-01-11T03:40:22.197Z,0.39
2019-01-11T03:42:51.398Z,0.41
2019-01-11T03:45:22.253Z,0.43
2019-01-11T03:47:50.846Z,0.57
2019-01-11T03:50:20.503Z,0.54
2019-01-11T03:52:49.946Z,0.53
2019-01-11T03:55:19.898Z,0.53
2019-01-11T03:57:48.735Z,0.52
2019-01-11T04:00:19.626Z,0.47
2019-01-11T04:02:49.409Z,0.40
2019-01-11T04:05:18.483Z,0.29
2019-01-11T04:07:47.594Z,0.29
2019-01-11T04:10:20.876Z,0.47
2019-01-11T04:12:51.288Z,0.56
2019-01-11T04:15:23.391Z,0.58
2019-01-11T04:18:11.469Z,0.69
2019-01-11T04:20:40.095Z,0.55
2019-01-11T04:23:08.736Z,0.50
2019-01-11T04:25:38.613Z,0.43
2019-01-11T04:28:07.324Z,0.47
2019-01-11T04:30:36.313Z,0.39
2019-01-11T04:33:04.983Z,0.41
2019-01-11T04:35:33.704Z,0.31
2019-01-11T04:38:02.332Z,0.39
2019-01-11T04:40:34.297Z,0.43
2019-01-11T04:43:01.272Z,0.40
2019-01-11T04:45:30.006Z,0.45
2019-01-11T04:47:58.568Z,0.62
2019-01-11T04:50:27.175Z,0.58
2019-01-11T04:52:55.837Z,0.56
2019-01-11T04:55:24.547Z,0.47
2019-01-11T04:57:53.108Z,0.50
2019-01-11T05:00:22.193Z,0.61
2019-01-11T05:02:51.204Z,0.69
2019-01-11T05:05:23.013Z,0.71
2019-01-11T05:07:51.988Z,0.65
2019-01-11T05:10:23.744Z,0.68
2019-01-11T05:12:52.373Z,0.56
2019-01-11T05:15:21.602Z,0.63
2019-01-11T05:17:50.324Z,0.72
2019-01-11T05:20:21.826Z,0.61
2019-01-11T05:22:51.897Z,0.46
2019-01-11T05:25:22.420Z,0.55
2019-01-11T05:27:51.113Z,0.49
2019-01-11T05:30:22.632Z,0.53
2019-01-11T05:32:52.819Z,0.61
2019-01-11T05:35:24.374Z,0.54
2019-01-11T05:37:52.982Z,0.57
2019-01-11T05:40:21.612Z,0.69
2019-01-11T05:42:50.200Z,0.74
2019-01-11T05:45:21.070Z,0.85
2019-01-11T05:47:49.676Z,0.73
2019-01-11T05:50:24.034Z,0.62
2019-01-11T05:52:51.888Z,0.71
2019-01-11T05:55:25.607Z,0.74
2019-01-11T05:58:04.826Z,0.69
2019-01-11T06:00:33.392Z,0.66
2019-01-11T06:03:02.040Z,0.66
2019-01-11T06:05:30.650Z,0.66
2019-01-11T06:08:01.000Z,0.65
2019-01-11T06:10:29.714Z,0.73
2019-01-11T06:12:58.349Z,0.61
2019-01-11T06:15:26.959Z,0.63
2019-01-11T06:17:55.976Z,0.74
2019-01-11T06:20:30.293Z,0.72
2019-01-11T06:22:55.177Z,0.71
2019-01-11T06:25:23.788Z,0.72
2019-01-11T06:27:52.506Z,0.63
2019-01-11T06:30:22.785Z,0.67
2019-01-11T06:32:51.404Z,0.61
2019-01-11T06:35:20.443Z,0.57
2019-01-11T06:37:49.684Z,0.67
2019-01-11T06:40:18.290Z,0.72
2019-01-11T06:42:46.900Z,0.69
2019-01-11T06:45:16.125Z,0.67
2019-01-11T06:47:44.710Z,0.58
2019-01-11T06:50:17.155Z,0.64
2019-01-11T06:52:45.780Z,0.73
2019-01-11T06:55:14.616Z,0.63
2019-01-11T06:57:43.319Z,0.80
2019-01-11T07:00:39.479Z,0.82
2019-01-11T07:03:08.086Z,0.81
2019-01-11T07:05:36.700Z,0.69
2019-01-11T07:08:05.311Z,0.75
2019-01-11T07:10:34.020Z,0.62
2019-01-11T07:13:02.641Z,0.69
2019-01-11T07:15:32.087Z,0.61
2019-01-11T07:18:00.906Z,0.55
2019-01-11T07:20:29.513Z,0.56
2019-01-11T07:22:58.128Z,0.62
2019-01-11T07:25:26.749Z,0.62
2019-01-11T07:27:57.010Z,0.75
2019-01-11T07:30:27.768Z,0.75
2019-01-11T07:32:56.481Z,0.59
2019-01-11T07:35:26.752Z,0.59
2019-01-11T07:37:55.358Z,0.50
2019-01-11T07:40:24.071Z,0.49
2019-01-11T07:42:52.641Z,0.57
2019-01-11T07:45:24.067Z,0.68
2019-01-11T07:47:52.778Z,0.65
2019-01-11T07:50:24.273Z,0.60
2019-01-11T07:52:53.287Z,0.67
2019-01-11T07:55:21.848Z,0.70
2019-01-11T07:57:51.984Z,0.60
2019-01-11T08:00:23.660Z,0.63
2019-01-11T08:02:52.379Z,0.59
2019-01-11T08:05:22.468Z,0.41
2019-01-11T08:07:52.682Z,0.45
2019-01-11T08:10:24.175Z,0.55
2019-01-11T08:12:53.225Z,0.60
2019-01-11T08:15:21.947Z,0.58
2019-01-11T08:17:53.571Z,0.64
2019-01-11T08:20:22.283Z,0.66
2019-01-11T08:22:50.985Z,0.58
2019-01-11T08:25:19.613Z,0.66
2019-01-11T08:27:48.307Z,0.69
2019-01-11T08:30:17.737Z,0.89
2019-01-11T08:32:46.300Z,0.75
2019-01-11T08:35:16.083Z,0.82
2019-01-11T08:37:45.828Z,0.70
2019-01-11T08:40:14.629Z,0.73
2019-01-11T08:42:43.519Z,0.87
2019-01-11T08:45:15.404Z,0.85
2019-01-11T08:47:44.028Z,0.75
2019-01-11T08:50:18.402Z,0.73
2019-01-11T08:52:47.020Z,0.75
2019-01-11T08:55:15.643Z,0.81
2019-01-11T08:57:44.346Z,0.89
2019-01-11T09:00:15.041Z,0.91
2019-01-11T09:02:43.610Z,0.76
2019-01-11T09:05:12.441Z,0.90
2019-01-11T09:07:42.485Z,0.84
2019-01-11T09:10:14.186Z,0.86
2019-01-11T09:12:42.753Z,0.94
2019-01-11T09:15:11.438Z,1.03
2019-01-11T09:17:43.134Z,1.13
2019-01-11T09:20:11.942Z,1.14
2019-01-11T09:22:40.534Z,1.07
2019-01-11T09:25:09.477Z,1.11
2019-01-11T09:27:38.075Z,1.16
2019-01-11T09:30:09.771Z,1.04
2019-01-11T09:32:38.827Z,0.92
2019-01-11T09:35:07.633Z,1.06
2019-01-11T09:37:36.652Z,1.06
2019-01-11T09:40:07.798Z,0.80
2019-01-11T09:42:36.840Z,0.98
2019-01-11T09:45:07.709Z,1.14
2019-01-11T09:47:36.412Z,1.07
2019-01-11T09:50:08.199Z,1.04
2019-01-11T09:52:40.083Z,1.07
2019-01-11T09:55:09.583Z,1.02
2019-01-11T09:57:38.538Z,1.14
2019-01-11T10:00:10.224Z,1.16
2019-01-11T10:02:39.888Z,1.06
2019-01-11T10:05:10.621Z,1.18
2019-01-11T10:07:39.236Z,1.25
2019-01-11T10:10:10.915Z,1.30
2019-01-11T10:12:39.463Z,1.08
2019-01-11T10:15:10.402Z,1.09
2019-01-11T10:17:39.052Z,1.25
2019-01-11T10:20:10.338Z,1.22
2019-01-11T10:22:38.959Z,1.22
2019-01-11T10:25:09.871Z,1.38
2019-01-11T10:27:38.648Z,1.26
2019-01-11T10:30:13.353Z,1.33
2019-01-11T10:32:41.987Z,1.34
2019-01-11T10:35:11.485Z,1.37
2019-01-11T10:37:40.213Z,1.45
2019-01-11T10:40:14.447Z,1.47
2019-01-11T10:42:43.644Z,1.33
2019-01-11T10:45:15.239Z,1.30
2019-01-11T10:47:43.863Z,1.19
2019-01-11T10:50:15.570Z,1.29
2019-01-11T10:52:44.511Z,1.28
2019-01-11T10:55:15.216Z,1.37
2019-01-11T10:57:44.161Z,1.23
2019-01-11T11:00:21.351Z,1.30
2019-01-11T11:02:50.803Z,1.40
2019-01-11T11:05:20.224Z,1.49
2019-01-11T11:07:48.956Z,1.47
2019-01-11T11:10:17.724Z,1.58
2019-01-11T11:12:46.356Z,1.57
2019-01-11T11:15:16.818Z,1.51
2019-01-11T11:17:45.461Z,1.49
2019-01-11T11:20:16.461Z,1.55
2019-01-11T11:22:45.367Z,1.56
2019-01-11T11:25:19.124Z,1.53
2019-01-11T11:27:47.760Z,1.53
2019-01-11T11:30:18.049Z,1.58
2019-01-11T11:32:51.254Z,1.69
2019-01-11T11:35:19.866Z,1.70
2019-01-11T11:37:48.475Z,1.83
2019-01-11T11:40:17.198Z,1.82
2019-01-11T11:42:45.816Z,1.69
2019-01-11T11:45:15.510Z,1.69
2019-01-11T11:47:44.140Z,1.50
2019-01-11T11:50:12.932Z,1.59
2019-01-11T11:52:41.478Z,1.73
2019-01-11T11:55:10.887Z,1.64
2019-01-11T11:57:39.438Z,1.70
2019-01-11T12:00:11.315Z,1.63
2019-01-11T12:02:39.881Z,1.72
2019-01-11T12:05:08.608Z,1.51
2019-01-11T12:07:37.325Z,1.60
2019-01-11T12:10:08.879Z,1.67
2019-01-11T12:12:37.878Z,1.71
2019-01-11T12:15:07.751Z,1.67
2019-01-11T12:17:36.317Z,1.66
2019-01-11T12:20:07.921Z,1.68
2019-01-11T12:22:36.481Z,1.71
2019-01-11T12:25:06.948Z,1.82
2019-01-11T12:27:35.782Z,1.74
2019-01-11T12:30:06.862Z,1.75
2019-01-11T12:32:35.420Z,1.81
2019-01-11T12:35:04.726Z,1.81
2019-01-11T12:37:33.284Z,1.71
2019-01-11T12:40:02.259Z,1.84
2019-01-11T12:42:30.868Z,1.96
2019-01-11T12:44:59.491Z,2.09
2019-01-11T12:47:28.047Z,2.12
2019-01-11T12:49:56.650Z,1.87
2019-01-11T12:52:28.244Z,1.94
2019-01-11T12:54:56.847Z,1.80
2019-01-11T12:57:28.219Z,1.82
2019-01-11T12:59:56.837Z,1.83
2019-01-11T13:02:28.623Z,1.86
2019-01-11T13:04:57.291Z,1.91
2019-01-11T13:07:25.849Z,1.86
2019-01-11T13:09:55.931Z,1.92
2019-01-11T13:12:26.009Z,1.89
2019-01-11T13:14:57.726Z,1.95
2019-01-11T13:17:26.341Z,2.03
2019-01-11T13:19:55.727Z,2.01
2019-01-11T13:22:25.799Z,1.98
2019-01-11T13:24:55.867Z,2.13
2019-01-11T13:27:26.135Z,2.14
2019-01-11T13:29:57.628Z,2.10
2019-01-11T13:32:26.251Z,2.06
2019-01-11T13:34:54.873Z,2.05
2019-01-11T13:37:25.330Z,2.14
2019-01-11T13:39:56.840Z,2.18
2019-01-11T13:42:28.502Z,2.30
2019-01-11T13:44:57.120Z,2.35
2019-01-11T13:47:25.750Z,2.36
2019-01-11T13:49:55.910Z,2.30
2019-01-11T13:52:26.067Z,2.31
2019-01-11T13:54:57.662Z,2.38
2019-01-11T13:57:26.683Z,2.37
2019-01-11T13:59:56.853Z,2.51
2019-01-11T14:02:28.291Z,2.63
2019-01-11T14:04:56.854Z,2.56
2019-01-11T14:07:28.669Z,2.53
2019-01-11T14:09:57.466Z,2.58
2019-01-11T14:12:26.023Z,2.57
2019-01-11T14:14:57.750Z,2.51
2019-01-11T14:17:26.306Z,2.45
2019-01-11T14:19:54.875Z,2.57
2019-01-11T14:22:25.082Z,2.57
2019-01-11T14:24:53.641Z,2.60
2019-01-11T14:27:23.360Z,2.64
2019-01-11T14:29:51.942Z,2.58
2019-01-11T14:32:20.508Z,2.60
2019-01-11T14:34:49.225Z,2.67
2019-01-11T14:37:17.780Z,2.70
2019-01-11T14:39:46.432Z,2.70
2019-01-11T14:42:15.160Z,2.80
2019-01-11T14:44:55.138Z,2.88
2019-01-11T14:47:23.808Z,2.93
2019-01-11T14:49:52.368Z,2.97
2019-01-11T14:52:20.944Z,2.96
2019-01-11T14:54:49.483Z,2.94
2019-01-11T14:57:18.105Z,3.05
2019-01-11T14:59:46.668Z,2.99
2019-01-11T15:02:15.583Z,3.00
2019-01-11T15:04:44.149Z,3.03
2019-01-11T15:07:12.702Z,3.03
2019-01-11T15:09:41.256Z,3.08
2019-01-11T15:12:10.234Z,3.14
2019-01-11T15:14:38.794Z,3.15
2019-01-11T15:17:07.361Z,3.16
2019-01-11T15:19:35.931Z,3.12
2019-01-11T15:22:05.967Z,3.13
2019-01-11T15:24:34.604Z,3.20
2019-01-11T15:27:03.228Z,3.11
2019-01-11T15:29:31.827Z,3.16
2019-01-11T15:32:00.488Z,3.18
2019-01-11T15:34:29.119Z,3.24
2019-01-11T15:36:57.850Z,3.31
2019-01-11T15:39:26.489Z,3.30
2019-01-11T15:41:56.590Z,3.35
2019-01-11T15:44:27.197Z,3.43
2019-01-11T15:46:55.914Z,3.36
2019-01-11T15:49:24.675Z,3.44
2019-01-11T15:51:54.980Z,3.49
2019-01-11T15:54:24.132Z,3.52
2019-01-11T15:56:54.861Z,3.49
2019-01-11T15:59:25.056Z,3.62
2019-01-11T16:01:55.003Z,3.61
2019-01-11T16:04:23.560Z,3.59
2019-01-11T16:06:52.952Z,3.59
2019-01-11T16:09:27.170Z,3.61
2019-01-11T16:12:01.488Z,3.61
2019-01-11T16:14:54.071Z,3.66
2019-01-11T16:17:26.208Z,3.63
2019-01-11T16:19:54.827Z,3.75
2019-01-11T16:22:25.208Z,3.75
2019-01-11T16:24:54.180Z,3.76
2019-01-11T16:27:24.817Z,3.81
2019-01-11T16:29:55.068Z,3.85
2019-01-11T16:32:23.628Z,3.82
2019-01-11T16:34:52.302Z,3.83
2019-01-11T16:37:20.932Z,3.90
2019-01-11T16:39:49.866Z,3.88
2019-01-11T16:42:19.762Z,3.88
2019-01-11T16:44:48.714Z,3.88
2019-01-11T16:47:17.288Z,4.00
2019-01-11T16:49:46.304Z,4.04
2019-01-11T16:52:15.396Z,4.17
2019-01-11T16:54:44.209Z,4.17
2019-01-11T16:57:12.814Z,4.18
2019-01-11T16:59:41.388Z,4.20
2019-01-11T17:02:12.682Z,4.18
2019-01-11T17:04:41.270Z,4.37
2019-01-11T17:07:09.824Z,4.21
2019-01-11T17:09:38.389Z,4.33
2019-01-11T17:12:06.941Z,4.33
2019-01-11T17:14:35.584Z,4.35
2019-01-11T17:17:04.308Z,4.31
2019-01-11T17:19:32.937Z,4.41
2019-01-11T17:22:01.881Z,4.44
2019-01-11T17:24:30.450Z,4.44
2019-01-11T17:27:00.735Z,4.44
2019-01-11T17:29:29.272Z,4.53
2019-01-11T17:31:57.894Z,4.53
2019-01-11T17:34:26.453Z,4.58
2019-01-11T17:36:56.563Z,4.58
2019-01-11T17:39:26.666Z,4.63
2019-01-11T17:41:56.272Z,4.64
2019-01-11T17:44:24.851Z,4.62
2019-01-11T17:46:55.053Z,4.62
2019-01-11T17:49:23.830Z,4.68
2019-01-11T17:51:55.186Z,4.61
2019-01-11T17:54:24.135Z,4.61
2019-01-11T17:56:54.930Z,4.67
2019-01-11T18:01:58.594Z,4.83
2019-01-11T18:04:27.148Z,4.76
2019-01-11T18:06:55.765Z,4.72
2019-01-11T18:09:26.190Z,4.72
2019-01-11T18:11:57.678Z,4.88
2019-01-11T18:14:26.236Z,4.90
2019-01-11T18:16:54.861Z,4.89
2019-01-11T18:19:25.098Z,4.91
2019-01-11T18:21:53.744Z,4.84
2019-01-11T18:24:23.577Z,4.83
2019-01-11T18:26:53.461Z,4.98
2019-01-11T18:29:21.998Z,4.98
2019-01-11T18:31:53.699Z,5.00
2019-01-11T18:34:22.373Z,4.98
2019-01-11T18:36:51.018Z,4.98
2019-01-11T18:39:19.712Z,5.04
2019-01-11T18:41:48.735Z,5.04
2019-01-11T18:44:17.290Z,5.05
2019-01-11T18:46:45.899Z,5.05
2019-01-11T18:49:14.518Z,5.19
2019-01-11T18:51:43.067Z,5.11
2019-01-11T18:54:11.636Z,5.11
2019-01-11T18:56:40.191Z,5.19
2019-01-11T18:59:08.829Z,5.15
2019-01-11T19:01:37.385Z,5.15
2019-01-11T19:04:06.089Z,5.25
2019-01-11T19:06:35.141Z,5.14
2019-01-11T19:09:05.867Z,5.16
2019-01-11T19:11:34.470Z,5.14
2019-01-11T19:14:03.111Z,5.14
2019-01-11T19:16:31.667Z,5.22
2019-01-11T19:19:00.234Z,5.21
2019-01-11T19:21:28.856Z,5.26
2019-01-11T19:23:57.463Z,5.35
2019-01-11T19:26:26.023Z,5.35
2019-01-11T19:28:57.592Z,5.33
2019-01-11T19:31:26.175Z,5.23
2019-01-11T19:33:57.650Z,5.34
2019-01-11T19:36:26.591Z,5.36
2019-01-11T19:38:56.710Z,5.38
2019-01-11T19:41:28.137Z,5.38
2019-01-11T19:43:56.710Z,5.43
2019-01-11T19:46:28.212Z,5.43
2019-01-11T19:48:56.776Z,5.45
2019-01-11T19:51:25.829Z,5.43
2019-01-11T19:53:55.986Z,5.38
2019-01-11T19:56:29.443Z,5.42
2019-01-11T19:58:58.052Z,5.35
2019-01-11T20:01:26.861Z,5.38
2019-01-11T20:03:55.469Z,5.41
2019-01-11T20:06:24.159Z,5.34
2019-01-11T20:08:53.779Z,5.38
2019-01-11T20:11:22.469Z,5.41
2019-01-11T20:13:51.102Z,5.38
2019-01-11T20:16:19.725Z,5.34
2019-01-11T20:18:48.407Z,5.37
2019-01-11T20:21:17.135Z,5.35
2019-01-11T20:23:46.173Z,5.38
2019-01-11T20:26:14.807Z,5.43
2019-01-11T20:28:43.442Z,5.42
2019-01-11T20:31:12.163Z,5.35
2019-01-11T20:33:41.005Z,5.37
2019-01-11T20:36:09.634Z,5.37
2019-01-11T20:38:38.629Z,5.31
2019-01-11T20:41:08.050Z,5.31
2019-01-11T20:43:37.528Z,5.32
2019-01-11T20:46:06.395Z,5.32
2019-01-11T20:48:35.377Z,5.25
2019-01-11T20:51:04.003Z,5.26
2019-01-11T20:53:32.581Z,5.27
2019-01-11T20:56:01.126Z,5.22
2019-01-11T20:58:29.774Z,5.27
2019-01-11T21:00:58.400Z,5.18
2019-01-11T21:03:26.955Z,5.28
2019-01-11T21:05:56.036Z,5.29
2019-01-11T21:08:27.175Z,5.23
2019-01-11T21:10:55.712Z,5.34
2019-01-11T21:13:25.816Z,5.27
2019-01-11T21:15:55.885Z,5.24
2019-01-11T21:18:26.439Z,5.29
2019-01-11T21:20:55.879Z,5.15
2019-01-11T21:23:25.965Z,5.17
2019-01-11T21:25:54.684Z,5.11
2019-01-11T21:28:24.899Z,5.14
2019-01-11T21:30:57.352Z,5.15
2019-01-11T21:33:26.664Z,5.19
2019-01-11T21:35:56.831Z,5.24
2019-01-11T21:38:25.460Z,5.25
2019-01-11T21:40:56.609Z,5.09
2019-01-11T21:43:27.176Z,5.18
2019-01-11T21:46:03.150Z,5.18
2019-01-11T21:48:29.384Z,5.17
2019-01-11T21:50:58.041Z,5.24
2019-01-11T21:53:26.659Z,5.14
2019-01-11T21:55:57.324Z,5.12
2019-01-11T21:58:26.349Z,5.12
2019-01-11T22:00:54.918Z,5.11
2019-01-11T22:03:23.682Z,5.11
2019-01-11T22:05:54.202Z,5.07
2019-01-11T22:08:25.156Z,5.07
2019-01-11T22:10:56.539Z,5.16
2019-01-11T22:13:27.114Z,5.07
2019-01-11T22:15:56.240Z,5.07
2019-01-11T22:18:25.158Z,5.12
2019-01-11T22:20:57.118Z,5.02
2019-01-11T22:23:29.343Z,5.08
2019-01-11T22:25:58.016Z,5.08
2019-01-11T22:28:26.834Z,5.11
2019-01-11T22:30:55.898Z,5.11
2019-01-11T22:33:27.262Z,5.14
2019-01-11T22:35:55.947Z,5.08
2019-01-11T22:38:28.474Z,5.08
2019-01-11T22:40:57.111Z,5.24
2019-01-11T22:43:26.236Z,5.13
2019-01-11T22:45:56.543Z,5.13
2019-01-11T22:48:26.566Z,5.06
2019-01-11T22:50:58.217Z,5.08
2019-01-11T22:53:27.093Z,5.09
2019-01-11T22:55:55.658Z,5.14
2019-01-11T22:58:25.752Z,5.08
2019-01-11T23:00:57.991Z,5.07
2019-01-11T23:03:30.088Z,5.06
2019-01-11T23:06:19.972Z,5.16
2019-01-11T23:08:48.964Z,5.16
2019-01-11T23:11:27.162Z,5.12
2019-01-11T23:13:55.875Z,5.16
2019-01-11T23:16:27.727Z,4.98
2019-01-11T23:18:57.324Z,5.11
2019-01-11T23:21:26.579Z,5.11
2019-01-11T23:23:57.638Z,5.04
2019-01-11T23:26:26.297Z,5.15
2019-01-11T23:28:54.941Z,5.15
2019-01-11T23:31:23.675Z,5.19
2019-01-11T23:33:54.300Z,5.19
2019-01-11T23:36:22.994Z,5.09
2019-01-11T23:38:51.565Z,5.12
2019-01-11T23:41:20.592Z,5.12
2019-01-11T23:43:49.428Z,5.19
2019-01-11T23:46:18.020Z,5.15
2019-01-11T23:48:46.567Z,5.15
2019-01-11T23:51:15.118Z,5.12
2019-01-11T23:53:43.701Z,5.08
2019-01-11T23:56:12.342Z,5.08
2019-01-11T23:58:40.963Z,5.01
